createdAt,value
2019-05-01T00:00:15.955Z,8.45
2019-05-01T00:01:10.154Z,8.42
2019-05-01T00:02:09.123Z,8.42
2019-05-01T00:03:09.105Z,8.38
2019-05-01T00:04:09.104Z,8.38
2019-05-01T00:05:09.109Z,8.31
2019-05-01T00:06:09.133Z,8.28
2019-05-01T00:07:09.088Z,8.31
2019-05-01T00:08:09.901Z,8.30
2019-05-01T00:09:09.073Z,8.27
2019-05-01T00:10:09.191Z,8.26
2019-05-01T00:11:09.901Z,8.28
2019-05-01T00:12:09.030Z,8.30
2019-05-01T00:13:08.998Z,8.28
2019-05-01T00:14:08.978Z,8.16
2019-05-01T00:15:08.983Z,8.16
2019-05-01T00:16:08.979Z,8.15
2019-05-01T00:17:08.996Z,8.10
2019-05-01T00:18:08.945Z,8.18
2019-05-01T00:19:08.965Z,8.09
2019-05-01T00:20:08.919Z,8.09
2019-05-01T00:21:08.922Z,8.20
2019-05-01T00:22:08.932Z,8.16
2019-05-01T00:23:08.887Z,8.20
2019-05-01T00:24:09.392Z,8.26
2019-05-01T00:25:08.901Z,8.18
2019-05-01T00:26:08.901Z,8.20
2019-05-01T00:27:08.904Z,8.16
2019-05-01T00:28:08.857Z,8.15
2019-05-01T00:29:08.837Z,8.19
2019-05-01T00:30:08.840Z,8.20
2019-05-01T00:31:09.429Z,8.18
2019-05-01T00:32:08.846Z,8.19
2019-05-01T00:33:08.792Z,8.27
2019-05-01T00:34:08.763Z,8.31
2019-05-01T00:35:08.762Z,8.26
2019-05-01T00:36:08.749Z,8.31
2019-05-01T00:37:09.387Z,8.31
2019-05-01T00:38:08.762Z,8.34
2019-05-01T00:39:08.732Z,8.34
2019-05-01T00:40:08.700Z,8.30
2019-05-01T00:41:08.718Z,8.33
2019-05-01T00:42:12.388Z,8.16
2019-05-01T00:43:08.673Z,8.18
2019-05-01T00:44:08.679Z,8.18
2019-05-01T00:45:08.668Z,8.20
2019-05-01T00:46:08.637Z,8.16
2019-05-01T00:47:09.395Z,8.28
2019-05-01T00:48:08.637Z,8.30
2019-05-01T00:49:08.608Z,8.28
2019-05-01T00:50:09.383Z,8.28
2019-05-01T00:51:09.380Z,8.34
2019-05-01T00:52:09.378Z,8.41
2019-05-01T00:53:08.653Z,8.36
2019-05-01T00:54:08.571Z,8.38
2019-05-01T00:55:08.635Z,8.37
2019-05-01T00:56:08.573Z,8.41
2019-05-01T00:57:08.518Z,8.41
2019-05-01T00:58:08.587Z,8.46
2019-05-01T00:59:08.972Z,8.52
2019-05-01T01:00:08.480Z,8.56
2019-05-01T01:01:08.483Z,8.52
2019-05-01T01:02:08.481Z,8.58
2019-05-01T01:03:08.485Z,8.73
2019-05-01T01:04:08.486Z,8.64
2019-05-01T01:05:08.435Z,8.69
2019-05-01T01:06:08.926Z,8.66
2019-05-01T01:07:09.380Z,8.60
2019-05-01T01:08:09.369Z,8.64
2019-05-01T01:09:08.432Z,8.63
2019-05-01T01:10:08.427Z,8.70
2019-05-01T01:11:08.380Z,8.66
2019-05-01T01:12:08.359Z,8.66
2019-05-01T01:13:08.392Z,8.78
2019-05-01T01:14:08.355Z,8.87
2019-05-01T01:15:08.371Z,8.84
2019-05-01T01:16:08.334Z,8.85
2019-05-01T01:17:08.374Z,8.91
2019-05-01T01:18:08.881Z,8.94
2019-05-01T01:19:08.326Z,9.00
2019-05-01T01:20:08.284Z,8.94
2019-05-01T01:21:08.311Z,9.03
2019-05-01T01:22:08.295Z,9.06
2019-05-01T01:23:08.281Z,9.11
2019-05-01T01:24:08.228Z,9.19
2019-05-01T01:25:08.236Z,9.06
2019-05-01T01:26:08.244Z,9.11
2019-05-01T01:27:08.183Z,9.26
2019-05-01T01:28:08.256Z,9.26
2019-05-01T01:29:08.166Z,9.22
2019-05-01T01:30:08.910Z,9.25
2019-05-01T01:31:08.906Z,9.32
2019-05-01T01:32:08.174Z,9.25
2019-05-01T01:33:08.173Z,9.29
2019-05-01T01:34:08.126Z,9.28
2019-05-01T01:35:08.116Z,9.26
2019-05-01T01:36:08.204Z,9.28
2019-05-01T01:37:08.108Z,9.31
2019-05-01T01:38:08.139Z,9.39
2019-05-01T01:39:08.058Z,9.43
2019-05-01T01:40:08.044Z,9.40
2019-05-01T01:41:08.080Z,9.48
2019-05-01T01:42:08.032Z,9.48
2019-05-01T01:43:08.856Z,9.47
2019-05-01T01:44:08.871Z,9.51
2019-05-01T01:45:07.992Z,9.62
2019-05-01T01:46:07.975Z,9.59
2019-05-01T01:47:08.017Z,9.61
2019-05-01T01:48:07.983Z,9.62
2019-05-01T01:49:08.027Z,9.48
2019-05-01T01:50:08.018Z,9.43
2019-05-01T01:51:07.931Z,9.46
2019-05-01T01:52:08.843Z,9.43
2019-05-01T01:53:07.922Z,9.47
2019-05-01T01:54:07.888Z,9.46
2019-05-01T01:55:07.967Z,9.44
2019-05-01T01:56:07.889Z,9.48
2019-05-01T01:57:07.903Z,9.55
2019-05-01T01:58:07.852Z,9.55
2019-05-01T01:59:07.896Z,9.61
2019-05-01T02:00:07.830Z,9.58
2019-05-01T02:01:09.675Z,9.64
2019-05-01T02:02:07.877Z,9.73
2019-05-01T02:03:07.845Z,9.69
2019-05-01T02:04:07.878Z,9.69
2019-05-01T02:05:07.791Z,9.74
2019-05-01T02:06:07.755Z,9.66
2019-05-01T02:07:07.839Z,9.74
2019-05-01T02:08:09.047Z,9.74
2019-05-01T02:09:10.379Z,9.77
2019-05-01T02:10:07.745Z,9.74
2019-05-01T02:11:07.782Z,9.82
2019-05-01T02:12:07.700Z,9.87
2019-05-01T02:13:08.421Z,9.84
2019-05-01T02:14:07.814Z,9.95
2019-05-01T02:15:07.694Z,9.99
2019-05-01T02:16:07.672Z,10.01
2019-05-01T02:17:07.713Z,10.01
2019-05-01T02:18:07.626Z,10.10
2019-05-01T02:19:07.624Z,10.09
2019-05-01T02:20:07.617Z,10.19
2019-05-01T02:21:07.644Z,10.28
2019-05-01T02:22:07.606Z,10.30
2019-05-01T02:23:07.611Z,10.26
2019-05-01T02:24:07.567Z,10.26
2019-05-01T02:25:07.595Z,10.33
2019-05-01T02:26:07.599Z,10.25
2019-05-01T02:27:07.533Z,10.25
2019-05-01T02:28:07.657Z,10.33
2019-05-01T02:29:08.329Z,10.34
2019-05-01T02:30:08.330Z,10.42
2019-05-01T02:31:07.559Z,10.54
2019-05-01T02:32:07.483Z,10.53
2019-05-01T02:33:07.491Z,10.59
2019-05-01T02:34:07.485Z,10.54
2019-05-01T02:35:08.333Z,10.60
2019-05-01T02:36:08.325Z,10.56
2019-05-01T02:37:07.520Z,10.60
2019-05-01T02:38:07.421Z,10.67
2019-05-01T02:39:07.446Z,10.71
2019-05-01T02:40:07.414Z,10.64
2019-05-01T02:41:08.318Z,10.76
2019-05-01T02:42:07.424Z,10.74
2019-05-01T02:43:08.318Z,10.89
2019-05-01T02:44:07.378Z,10.87
2019-05-01T02:45:07.362Z,10.82
2019-05-01T02:46:07.332Z,10.89
2019-05-01T02:47:07.322Z,10.94
2019-05-01T02:48:07.312Z,10.96
2019-05-01T02:49:07.295Z,10.99
2019-05-01T02:50:07.328Z,11.08
2019-05-01T02:51:07.293Z,11.07
2019-05-01T02:52:07.299Z,11.10
2019-05-01T02:53:07.254Z,11.05
2019-05-01T02:54:07.244Z,11.19
2019-05-01T02:55:07.828Z,11.19
2019-05-01T02:56:07.265Z,11.17
2019-05-01T02:57:07.256Z,11.18
2019-05-01T02:58:07.226Z,11.18
2019-05-01T02:59:07.182Z,11.22
2019-05-01T03:00:07.178Z,11.26
2019-05-01T03:01:07.168Z,11.25
2019-05-01T03:02:08.428Z,11.25
2019-05-01T03:03:07.165Z,11.30
2019-05-01T03:04:07.198Z,11.27
2019-05-01T03:05:07.116Z,11.29
2019-05-01T03:06:07.126Z,11.36
2019-05-01T03:07:07.134Z,11.25
2019-05-01T03:08:07.815Z,11.30
2019-05-01T03:09:07.074Z,11.30
2019-05-01T03:10:09.529Z,11.35
2019-05-01T03:11:07.119Z,11.30
2019-05-01T03:12:07.081Z,11.29
2019-05-01T03:13:07.086Z,11.33
2019-05-01T03:14:07.860Z,11.30
2019-05-01T03:15:07.041Z,11.32
2019-05-01T03:16:07.052Z,11.35
2019-05-01T03:17:06.998Z,11.35
2019-05-01T03:18:06.979Z,11.29
2019-05-01T03:19:10.260Z,11.36
2019-05-01T03:20:07.042Z,11.33
2019-05-01T03:21:07.085Z,11.32
2019-05-01T03:22:06.933Z,11.26
2019-05-01T03:23:06.924Z,11.25
2019-05-01T03:24:06.942Z,11.29
2019-05-01T03:25:06.908Z,11.26
2019-05-01T03:26:06.977Z,11.29
2019-05-01T03:27:06.884Z,11.30
2019-05-01T03:28:07.803Z,11.25
2019-05-01T03:29:06.869Z,11.29
2019-05-01T03:30:06.847Z,11.27
2019-05-01T03:31:07.806Z,11.26
2019-05-01T03:32:18.305Z,11.27
2019-05-01T03:33:07.826Z,11.23
2019-05-01T03:34:06.810Z,11.22
2019-05-01T03:35:07.291Z,11.29
2019-05-01T03:36:06.826Z,11.23
2019-05-01T03:37:06.824Z,11.27
2019-05-01T03:38:06.761Z,11.29
2019-05-01T03:39:06.747Z,11.23
2019-05-01T03:40:06.740Z,11.23
2019-05-01T03:41:06.747Z,11.25
2019-05-01T03:42:06.839Z,11.25
2019-05-01T03:43:06.709Z,11.22
2019-05-01T03:44:06.685Z,11.23
2019-05-01T03:45:06.696Z,11.43
2019-05-01T03:46:06.677Z,11.35
2019-05-01T03:47:06.658Z,11.25
2019-05-01T03:48:06.702Z,11.33
2019-05-01T03:49:06.662Z,11.27
2019-05-01T03:50:06.636Z,11.25
2019-05-01T03:51:06.656Z,11.25
2019-05-01T03:52:06.620Z,11.27
2019-05-01T03:53:06.631Z,11.19
2019-05-01T03:54:06.600Z,11.27
2019-05-01T03:55:06.562Z,11.23
2019-05-01T03:56:07.288Z,11.23
2019-05-01T03:57:06.561Z,11.27
2019-05-01T03:58:06.540Z,11.29
2019-05-01T03:59:06.571Z,11.26
2019-05-01T04:00:07.355Z,11.25
2019-05-01T04:01:06.504Z,11.18
2019-05-01T04:02:06.542Z,11.23
2019-05-01T04:03:06.515Z,11.19
2019-05-01T04:04:06.539Z,11.18
2019-05-01T04:05:07.335Z,11.17
2019-05-01T04:06:06.440Z,11.19
2019-05-01T04:07:06.437Z,11.25
2019-05-01T04:08:06.508Z,11.19
2019-05-01T04:09:06.470Z,11.14
2019-05-01T04:10:06.439Z,11.22
2019-05-01T04:11:06.447Z,11.18
2019-05-01T04:12:06.415Z,11.15
2019-05-01T04:13:06.374Z,11.14
2019-05-01T04:14:06.390Z,11.17
2019-05-01T04:15:06.470Z,11.04
2019-05-01T04:16:06.391Z,11.11
2019-05-01T04:17:06.353Z,11.08
2019-05-01T04:18:06.391Z,11.07
2019-05-01T04:19:06.311Z,11.08
2019-05-01T04:20:06.364Z,11.07
2019-05-01T04:21:06.283Z,11.08
2019-05-01T04:22:06.290Z,11.04
2019-05-01T04:23:06.263Z,11.04
2019-05-01T04:24:06.263Z,11.07
2019-05-01T04:25:06.253Z,11.04
2019-05-01T04:26:06.247Z,11.04
2019-05-01T04:27:06.281Z,10.99
2019-05-01T04:28:06.263Z,11.00
2019-05-01T04:29:06.195Z,10.92
2019-05-01T04:30:06.201Z,10.99
2019-05-01T04:31:06.199Z,10.96
2019-05-01T04:32:06.196Z,11.02
2019-05-01T04:33:06.201Z,11.08
2019-05-01T04:34:06.161Z,11.07
2019-05-01T04:35:06.124Z,11.05
2019-05-01T04:36:06.124Z,11.02
2019-05-01T04:37:06.133Z,11.02
2019-05-01T04:38:06.139Z,11.02
2019-05-01T04:39:06.104Z,11.07
2019-05-01T04:40:06.089Z,10.99
2019-05-01T04:41:06.111Z,11.05
2019-05-01T04:42:06.055Z,11.04
2019-05-01T04:43:06.374Z,11.02
2019-05-01T04:44:06.064Z,11.08
2019-05-01T04:45:06.042Z,11.07
2019-05-01T04:46:05.999Z,10.92
2019-05-01T04:47:06.015Z,10.93
2019-05-01T04:48:06.013Z,10.92
2019-05-01T04:49:06.003Z,10.97
2019-05-01T04:50:05.968Z,10.99
2019-05-01T04:51:05.972Z,10.99
2019-05-01T04:52:06.010Z,10.93
2019-05-01T04:53:05.992Z,10.96
2019-05-01T04:54:05.981Z,10.97
2019-05-01T04:55:05.903Z,11.04
2019-05-01T04:56:05.909Z,11.00
2019-05-01T04:57:05.908Z,10.99
2019-05-01T04:58:05.878Z,11.02
2019-05-01T04:59:05.900Z,11.00
2019-05-01T05:00:05.956Z,11.08
2019-05-01T05:01:05.839Z,11.10
2019-05-01T05:02:05.840Z,11.12
2019-05-01T05:03:05.843Z,11.10
2019-05-01T05:04:05.802Z,11.10
2019-05-01T05:05:05.856Z,11.18
2019-05-01T05:06:06.017Z,11.15
2019-05-01T05:07:05.768Z,11.10
2019-05-01T05:08:05.796Z,11.15
2019-05-01T05:09:05.748Z,11.22
2019-05-01T05:10:05.739Z,11.18
2019-05-01T05:11:05.753Z,11.23
2019-05-01T05:12:05.731Z,11.14
2019-05-01T05:13:05.715Z,11.15
2019-05-01T05:14:05.721Z,11.19
2019-05-01T05:15:05.683Z,11.26
2019-05-01T05:16:05.731Z,11.22
2019-05-01T05:17:05.680Z,11.26
2019-05-01T05:18:05.651Z,11.26
2019-05-01T05:19:05.651Z,11.27
2019-05-01T05:20:05.656Z,11.29
2019-05-01T05:21:05.615Z,11.29
2019-05-01T05:22:05.665Z,11.37
2019-05-01T05:23:05.617Z,11.37
2019-05-01T05:24:05.589Z,11.40
2019-05-01T05:25:05.590Z,11.43
2019-05-01T05:26:05.563Z,11.48
2019-05-01T05:27:05.601Z,11.47
2019-05-01T05:28:05.547Z,11.43
2019-05-01T05:29:05.553Z,11.45
2019-05-01T05:30:05.525Z,11.48
2019-05-01T05:31:05.532Z,11.54
2019-05-01T05:32:05.543Z,11.44
2019-05-01T05:33:17.655Z,11.51
2019-05-01T05:34:05.484Z,11.41
2019-05-01T05:35:05.467Z,11.50
2019-05-01T05:36:05.472Z,11.45
2019-05-01T05:37:05.475Z,11.55
2019-05-01T05:38:05.473Z,11.50
2019-05-01T05:39:05.423Z,11.54
2019-05-01T05:40:05.414Z,11.55
2019-05-01T05:41:05.402Z,11.60
2019-05-01T05:42:05.399Z,11.65
2019-05-01T05:43:05.406Z,11.62
2019-05-01T05:44:05.369Z,11.65
2019-05-01T05:45:05.358Z,11.73
2019-05-01T05:46:05.356Z,11.66
2019-05-01T05:47:05.330Z,11.73
2019-05-01T05:48:05.363Z,11.66
2019-05-01T05:49:05.307Z,11.73
2019-05-01T05:50:05.299Z,11.69
2019-05-01T05:51:05.292Z,11.70
2019-05-01T05:52:05.286Z,11.73
2019-05-01T05:53:05.282Z,11.75
2019-05-01T05:54:05.286Z,11.66
2019-05-01T05:55:05.246Z,11.73
2019-05-01T05:56:05.241Z,11.86
2019-05-01T05:57:05.222Z,11.86
2019-05-01T05:58:05.212Z,11.81
2019-05-01T05:59:05.528Z,11.81
2019-05-01T06:00:05.200Z,11.83
2019-05-01T06:01:05.181Z,11.88
2019-05-01T06:02:05.164Z,11.91
2019-05-01T06:03:05.156Z,11.91
2019-05-01T06:04:05.188Z,11.97
2019-05-01T06:05:05.144Z,11.90
2019-05-01T06:06:05.139Z,11.97
2019-05-01T06:07:05.113Z,11.90
2019-05-01T06:08:05.103Z,12.04
2019-05-01T06:09:09.032Z,12.12
2019-05-01T06:10:05.117Z,12.15
2019-05-01T06:11:05.081Z,12.13
2019-05-01T06:12:08.745Z,12.21
2019-05-01T06:13:05.047Z,12.25
2019-05-01T06:14:05.034Z,12.31
2019-05-01T06:15:06.425Z,12.31
2019-05-01T06:16:05.022Z,12.31
2019-05-01T06:17:05.010Z,12.43
2019-05-01T06:18:05.945Z,12.50
2019-05-01T06:19:04.976Z,12.45
2019-05-01T06:20:04.996Z,12.58
2019-05-01T06:21:05.000Z,12.57
2019-05-01T06:22:09.982Z,12.61
2019-05-01T06:23:04.956Z,12.60
2019-05-01T06:24:06.680Z,12.75
2019-05-01T06:25:04.961Z,12.73
2019-05-01T06:26:04.914Z,12.70
2019-05-01T06:27:08.919Z,12.79
2019-05-01T06:28:04.937Z,12.78
2019-05-01T06:29:04.884Z,12.90
2019-05-01T06:30:06.521Z,12.91
2019-05-01T06:31:04.901Z,12.91
2019-05-01T06:32:04.868Z,12.76
2019-05-01T06:33:09.583Z,12.65
2019-05-01T06:34:04.834Z,12.67
2019-05-01T06:35:04.847Z,12.68
2019-05-01T06:36:08.787Z,12.70
2019-05-01T06:37:04.779Z,12.72
2019-05-01T06:38:04.806Z,12.78
2019-05-01T06:39:06.804Z,12.67
2019-05-01T06:40:04.795Z,12.73
2019-05-01T06:41:04.735Z,12.75
2019-05-01T06:42:04.729Z,12.73
2019-05-01T06:43:04.808Z,12.82
2019-05-01T06:44:07.336Z,12.79
2019-05-01T06:45:04.724Z,12.72
2019-05-01T06:46:04.702Z,12.72
2019-05-01T06:47:05.139Z,12.62
2019-05-01T06:48:04.740Z,12.70
2019-05-01T06:49:06.919Z,12.64
2019-05-01T06:50:06.037Z,12.68
2019-05-01T06:51:04.643Z,12.72
2019-05-01T06:52:04.658Z,12.83
2019-05-01T06:53:06.092Z,12.87
2019-05-01T06:54:04.591Z,12.93
2019-05-01T06:55:04.609Z,12.87
2019-05-01T06:56:04.585Z,12.91
2019-05-01T06:57:04.570Z,12.85
2019-05-01T06:58:04.550Z,12.83
2019-05-01T06:59:04.539Z,12.76
2019-05-01T07:00:08.176Z,12.82
2019-05-01T07:01:04.527Z,12.86
2019-05-01T07:02:04.518Z,12.95
2019-05-01T07:03:06.065Z,12.97
2019-05-01T07:04:05.498Z,13.00
2019-05-01T07:05:04.491Z,12.98
2019-05-01T07:06:14.109Z,12.94
2019-05-01T07:07:06.671Z,13.01
2019-05-01T07:08:04.443Z,13.08
2019-05-01T07:09:07.006Z,13.15
2019-05-01T07:10:04.419Z,13.20
2019-05-01T07:11:04.455Z,13.25
2019-05-01T07:12:04.401Z,13.30
2019-05-01T07:13:05.559Z,13.28
2019-05-01T07:14:04.383Z,13.42
2019-05-01T07:15:04.400Z,13.47
2019-05-01T07:16:04.413Z,13.54
2019-05-01T07:17:04.337Z,13.54
2019-05-01T07:18:04.340Z,13.53
2019-05-01T07:19:05.980Z,13.63
2019-05-01T07:20:04.321Z,13.65
2019-05-01T07:21:04.295Z,13.71
2019-05-01T07:22:06.380Z,13.78
2019-05-01T07:23:04.278Z,13.83
2019-05-01T07:24:04.298Z,13.75
2019-05-01T07:25:05.234Z,13.74
2019-05-01T07:26:04.256Z,13.83
2019-05-01T07:27:04.279Z,13.90
2019-05-01T07:28:04.227Z,13.95
2019-05-01T07:29:06.036Z,14.03
2019-05-01T07:30:05.205Z,14.00
2019-05-01T07:31:05.248Z,13.90
2019-05-01T07:32:06.379Z,14.05
2019-05-01T07:33:04.217Z,14.07
2019-05-01T07:34:16.035Z,14.12
2019-05-01T07:35:04.220Z,14.18
2019-05-01T07:36:07.579Z,14.23
2019-05-01T07:37:05.126Z,14.28
2019-05-01T07:38:04.110Z,14.29
2019-05-01T07:39:04.103Z,14.22
2019-05-01T07:40:04.146Z,14.26
2019-05-01T07:41:05.162Z,14.22
2019-05-01T07:42:07.797Z,14.25
2019-05-01T07:43:04.073Z,14.25
2019-05-01T07:44:04.045Z,14.32
2019-05-01T07:45:08.232Z,14.45
2019-05-01T07:46:05.066Z,14.47
2019-05-01T07:47:04.030Z,14.60
2019-05-01T07:48:05.579Z,14.62
2019-05-01T07:49:04.005Z,14.65
2019-05-01T07:50:03.976Z,14.69
2019-05-01T07:51:06.960Z,14.72
2019-05-01T07:52:04.035Z,14.82
2019-05-01T07:53:03.970Z,14.86
2019-05-01T07:54:08.508Z,14.92
2019-05-01T07:55:03.952Z,14.82
2019-05-01T07:56:03.911Z,14.82
2019-05-01T07:57:04.885Z,14.72
2019-05-01T07:58:03.896Z,14.73
2019-05-01T07:59:03.895Z,14.72
2019-05-01T08:00:08.109Z,14.59
2019-05-01T08:01:03.889Z,14.63
2019-05-01T08:02:03.847Z,14.55
2019-05-01T08:03:07.200Z,14.48
2019-05-01T08:04:03.834Z,14.43
2019-05-01T08:05:04.916Z,14.36
2019-05-01T08:06:04.806Z,14.32
2019-05-01T08:07:03.824Z,14.26
2019-05-01T08:08:07.950Z,14.22
2019-05-01T08:09:03.814Z,14.15
2019-05-01T08:10:03.774Z,14.17
2019-05-01T08:11:05.289Z,14.03
2019-05-01T08:12:03.765Z,14.08
2019-05-01T08:13:03.736Z,14.04
2019-05-01T08:14:07.539Z,13.93
2019-05-01T08:15:03.709Z,13.97
2019-05-01T08:16:07.049Z,13.96
2019-05-01T08:17:03.695Z,13.97
2019-05-01T08:18:03.716Z,13.99
2019-05-01T08:19:04.277Z,14.04
2019-05-01T08:20:03.702Z,13.99
2019-05-01T08:21:03.655Z,14.05
2019-05-01T08:22:03.650Z,13.96
2019-05-01T08:23:03.634Z,13.95
2019-05-01T08:24:03.671Z,13.93
2019-05-01T08:25:03.666Z,13.90
2019-05-01T08:26:04.063Z,13.93
2019-05-01T08:27:03.620Z,13.90
2019-05-01T08:28:03.566Z,13.90
2019-05-01T08:29:06.930Z,13.83
2019-05-01T08:30:03.565Z,13.81
2019-05-01T08:31:03.582Z,13.81
2019-05-01T08:32:04.632Z,13.89
2019-05-01T08:33:03.515Z,13.83
2019-05-01T08:34:03.521Z,13.89
2019-05-01T08:35:03.514Z,14.07
2019-05-01T08:36:06.812Z,14.15
2019-05-01T08:37:06.357Z,14.35
2019-05-01T08:38:03.456Z,14.33
2019-05-01T08:39:04.895Z,14.36
2019-05-01T08:40:04.435Z,14.43
2019-05-01T08:41:03.437Z,14.48
2019-05-01T08:42:06.941Z,14.44
2019-05-01T08:43:03.404Z,14.43
2019-05-01T08:44:03.395Z,14.47
2019-05-01T08:45:05.039Z,14.62
2019-05-01T08:46:03.383Z,14.55
2019-05-01T08:47:03.417Z,14.48
2019-05-01T08:48:03.351Z,14.54
2019-05-01T08:49:06.858Z,14.69
2019-05-01T08:50:03.335Z,14.91
2019-05-01T08:51:03.314Z,14.97
2019-05-01T08:52:04.720Z,14.99
2019-05-01T08:53:03.335Z,15.00
2019-05-01T08:54:03.293Z,15.00
2019-05-01T08:55:04.338Z,15.19
2019-05-01T08:56:03.275Z,15.37
2019-05-01T08:57:03.256Z,15.44
2019-05-01T08:58:03.288Z,15.55
2019-05-01T08:59:03.228Z,15.58
2019-05-01T09:00:03.233Z,15.49
2019-05-01T09:01:03.208Z,15.58
2019-05-01T09:02:09.435Z,15.70
2019-05-01T09:03:08.652Z,15.79
2019-05-01T09:04:12.636Z,15.88
2019-05-01T09:05:07.126Z,15.86
2019-05-01T09:06:03.161Z,15.75
2019-05-01T09:07:03.207Z,15.72
2019-05-01T09:08:03.173Z,15.68
2019-05-01T09:09:07.976Z,15.55
2019-05-01T09:10:03.126Z,15.52
2019-05-01T09:11:03.142Z,15.62
2019-05-01T09:12:06.858Z,15.62
2019-05-01T09:13:03.141Z,15.62
2019-05-01T09:14:03.067Z,15.58
2019-05-01T09:15:07.150Z,15.61
2019-05-01T09:16:03.062Z,15.54
2019-05-01T09:17:03.049Z,15.44
2019-05-01T09:18:03.020Z,15.52
2019-05-01T09:19:03.046Z,15.46
2019-05-01T09:20:03.000Z,15.47
2019-05-01T09:21:03.007Z,15.44
2019-05-01T09:22:02.981Z,15.42
2019-05-01T09:23:02.969Z,15.47
2019-05-01T09:24:03.013Z,15.46
2019-05-01T09:25:02.950Z,15.44
2019-05-01T09:26:06.778Z,15.43
2019-05-01T09:27:02.938Z,15.44
2019-05-01T09:28:04.167Z,15.35
2019-05-01T09:29:02.949Z,15.37
2019-05-01T09:30:04.531Z,15.31
2019-05-01T09:31:03.417Z,15.47
2019-05-01T09:32:05.005Z,15.55
2019-05-01T09:33:02.874Z,15.61
2019-05-01T09:34:02.886Z,15.65
2019-05-01T09:35:15.191Z,15.77
2019-05-01T09:36:02.845Z,15.86
2019-05-01T09:37:02.853Z,15.88
2019-05-01T09:38:02.829Z,15.92
2019-05-01T09:39:02.810Z,15.94
2019-05-01T09:40:04.070Z,15.98
2019-05-01T09:41:02.779Z,15.97
2019-05-01T09:42:03.196Z,15.94
2019-05-01T09:43:02.791Z,15.97
2019-05-01T09:44:05.787Z,16.00
2019-05-01T09:45:02.764Z,16.01
2019-05-01T09:46:02.717Z,16.08
2019-05-01T09:47:02.743Z,16.17
2019-05-01T09:48:02.707Z,16.33
2019-05-01T09:49:02.687Z,16.26
2019-05-01T09:50:02.685Z,16.16
2019-05-01T09:51:05.426Z,16.21
2019-05-01T09:52:02.652Z,16.20
2019-05-01T09:53:02.678Z,16.17
2019-05-01T09:54:05.711Z,16.20
2019-05-01T09:55:02.636Z,16.36
2019-05-01T09:56:03.182Z,16.43
2019-05-01T09:57:02.627Z,16.41
2019-05-01T09:58:03.001Z,16.49
2019-05-01T09:59:02.597Z,16.51
2019-05-01T10:00:02.565Z,16.61
2019-05-01T10:01:02.567Z,16.71
2019-05-01T10:02:02.932Z,16.83
2019-05-01T10:03:02.542Z,16.81
2019-05-01T10:04:05.521Z,16.99
2019-05-01T10:05:06.641Z,16.99
2019-05-01T10:06:02.505Z,16.93
2019-05-01T10:07:02.507Z,16.91
2019-05-01T10:08:04.048Z,16.86
2019-05-01T10:09:02.467Z,16.72
2019-05-01T10:10:02.488Z,16.78
2019-05-01T10:11:05.226Z,16.87
2019-05-01T10:12:02.440Z,16.94
2019-05-01T10:13:02.431Z,16.94
2019-05-01T10:14:04.161Z,17.05
2019-05-01T10:15:02.448Z,17.01
2019-05-01T10:16:02.412Z,17.14
2019-05-01T10:17:02.402Z,17.20
2019-05-01T10:18:02.379Z,17.29
2019-05-01T10:19:02.735Z,17.49
2019-05-01T10:20:02.376Z,17.52
2019-05-01T10:21:02.385Z,17.49
2019-05-01T10:22:03.664Z,17.64
2019-05-01T10:23:02.351Z,17.68
2019-05-01T10:24:02.310Z,17.60
2019-05-01T10:25:02.305Z,17.64
2019-05-01T10:26:02.292Z,17.60
2019-05-01T10:27:02.270Z,17.76
2019-05-01T10:28:07.166Z,17.68
2019-05-01T10:29:02.250Z,17.67
2019-05-01T10:30:03.101Z,17.57
2019-05-01T10:31:02.247Z,17.41
2019-05-01T10:32:02.216Z,17.39
2019-05-01T10:33:02.235Z,17.34
2019-05-01T10:34:07.141Z,17.19
2019-05-01T10:35:02.185Z,17.12
2019-05-01T10:36:02.181Z,17.11
2019-05-01T10:37:02.159Z,17.15
2019-05-01T10:38:04.758Z,17.15
2019-05-01T10:39:03.139Z,17.19
2019-05-01T10:40:02.160Z,17.08
2019-05-01T10:41:04.288Z,17.08
2019-05-01T10:42:02.117Z,17.06
2019-05-01T10:43:02.131Z,16.99
2019-05-01T10:44:02.132Z,17.05
2019-05-01T10:45:02.095Z,17.02
2019-05-01T10:46:02.097Z,17.09
2019-05-01T10:47:02.299Z,17.22
2019-05-01T10:48:02.073Z,17.27
2019-05-01T10:49:02.034Z,17.45
2019-05-01T10:50:02.020Z,17.44
2019-05-01T10:51:02.026Z,17.46
2019-05-01T10:52:13.597Z,17.46
2019-05-01T10:53:02.041Z,17.49
2019-05-01T10:54:02.000Z,17.54
2019-05-01T10:55:01.965Z,17.60
2019-05-01T10:56:01.951Z,17.60
2019-05-01T10:57:03.432Z,17.65
2019-05-01T10:58:03.444Z,17.72
2019-05-01T10:59:01.945Z,17.82
2019-05-01T11:00:01.944Z,17.87
2019-05-01T11:01:01.901Z,17.95
2019-05-01T11:02:01.894Z,17.82
2019-05-01T11:03:01.894Z,17.89
2019-05-01T11:04:01.922Z,18.03
2019-05-01T11:05:01.875Z,17.89
2019-05-01T11:06:01.875Z,17.87
2019-05-01T11:07:01.838Z,17.87
2019-05-01T11:08:01.845Z,17.95
2019-05-01T11:09:01.815Z,18.05
2019-05-01T11:10:01.837Z,18.10
2019-05-01T11:11:01.797Z,18.10
2019-05-01T11:12:01.774Z,18.05
2019-05-01T11:13:01.774Z,18.07
2019-05-01T11:14:01.768Z,18.04
2019-05-01T11:15:01.788Z,18.00
2019-05-01T11:16:01.741Z,18.05
2019-05-01T11:17:01.745Z,17.92
2019-05-01T11:18:01.753Z,17.98
2019-05-01T11:19:01.703Z,18.07
2019-05-01T11:20:01.691Z,18.07
2019-05-01T11:21:01.716Z,18.28
2019-05-01T11:22:01.677Z,18.25
2019-05-01T11:23:01.694Z,18.16
2019-05-01T11:24:01.642Z,18.31
2019-05-01T11:25:01.679Z,18.07
2019-05-01T11:26:01.645Z,18.04
2019-05-01T11:27:01.655Z,18.10
2019-05-01T11:28:01.631Z,18.10
2019-05-01T11:29:01.624Z,18.04
2019-05-01T11:30:01.583Z,17.97
2019-05-01T11:31:01.579Z,18.08
2019-05-01T11:32:01.590Z,18.11
2019-05-01T11:33:01.546Z,18.11
2019-05-01T11:34:01.544Z,18.29
2019-05-01T11:35:01.525Z,18.33
2019-05-01T11:36:09.178Z,18.35
2019-05-01T11:37:01.520Z,18.41
2019-05-01T11:38:01.543Z,18.23
2019-05-01T11:39:01.484Z,18.16
2019-05-01T11:40:01.488Z,18.00
2019-05-01T11:41:01.459Z,18.04
2019-05-01T11:42:01.449Z,18.04
2019-05-01T11:43:02.807Z,17.95
2019-05-01T11:44:01.442Z,18.07
2019-05-01T11:45:01.454Z,17.94
2019-05-01T11:46:01.421Z,17.94
2019-05-01T11:47:01.393Z,18.07
2019-05-01T11:48:01.387Z,18.01
2019-05-01T11:49:01.373Z,18.13
2019-05-01T11:50:01.412Z,18.19
2019-05-01T11:51:01.369Z,18.28
2019-05-01T11:52:01.353Z,18.34
2019-05-01T11:53:01.331Z,18.49
2019-05-01T11:54:02.312Z,18.44
2019-05-01T11:55:01.379Z,18.44
2019-05-01T11:56:01.304Z,18.35
2019-05-01T11:57:01.299Z,18.29
2019-05-01T11:58:01.270Z,18.28
2019-05-01T11:59:01.260Z,18.26
2019-05-01T12:00:01.255Z,18.33
2019-05-01T12:01:01.285Z,18.10
2019-05-01T12:02:02.563Z,17.97
2019-05-01T12:03:01.238Z,17.83
2019-05-01T12:04:01.207Z,17.86
2019-05-01T12:05:01.206Z,17.94
2019-05-01T12:06:01.243Z,17.92
2019-05-01T12:07:01.189Z,18.05
2019-05-01T12:08:01.169Z,18.05
2019-05-01T12:09:01.165Z,18.26
2019-05-01T12:10:01.174Z,18.20
2019-05-01T12:11:02.099Z,18.18
2019-05-01T12:12:01.613Z,18.07
2019-05-01T12:13:01.106Z,18.19
2019-05-01T12:14:01.109Z,18.22
2019-05-01T12:15:01.121Z,18.33
2019-05-01T12:16:01.073Z,18.38
2019-05-01T12:17:01.100Z,18.44
2019-05-01T12:18:01.062Z,18.49
2019-05-01T12:19:01.092Z,18.49
2019-05-01T12:20:01.048Z,18.55
2019-05-01T12:21:01.019Z,18.47
2019-05-01T12:22:01.011Z,18.44
2019-05-01T12:23:01.003Z,18.37
2019-05-01T12:24:01.023Z,18.47
2019-05-01T12:25:01.016Z,18.45
2019-05-01T12:26:00.999Z,18.44
2019-05-01T12:27:00.957Z,18.34
2019-05-01T12:28:00.949Z,18.28
2019-05-01T12:29:00.938Z,18.26
2019-05-01T12:30:00.964Z,18.28
2019-05-01T12:31:00.923Z,18.19
2019-05-01T12:32:00.914Z,18.28
2019-05-01T12:33:00.895Z,18.35
2019-05-01T12:34:00.891Z,18.28
2019-05-01T12:35:00.946Z,18.19
2019-05-01T12:36:00.859Z,18.18
2019-05-01T12:37:00.863Z,18.23
2019-05-01T12:38:00.871Z,18.31
2019-05-01T12:39:00.836Z,18.31
2019-05-01T12:40:00.834Z,18.43
2019-05-01T12:41:00.835Z,18.44
2019-05-01T12:42:00.796Z,18.53
2019-05-01T12:43:00.859Z,18.58
2019-05-01T12:44:00.769Z,18.52
2019-05-01T12:45:00.815Z,18.63
2019-05-01T12:46:00.747Z,18.63
2019-05-01T12:47:00.746Z,18.60
2019-05-01T12:48:00.740Z,18.62
2019-05-01T12:49:00.747Z,18.63
2019-05-01T12:50:00.739Z,18.65
2019-05-01T12:51:00.703Z,18.50
2019-05-01T12:52:10.235Z,18.40
2019-05-01T12:53:00.685Z,18.35
2019-05-01T12:54:00.668Z,18.40
2019-05-01T12:55:00.664Z,18.45
2019-05-01T12:56:00.637Z,18.35
2019-05-01T12:57:00.675Z,18.35